Time;durP1;ratioP1;P1;durP2;ratioP2;P2;SDS_P1;SDS_P2;PMS_P1;PMS_P2;Temp;Humidity;BMP_temperature;BMP_pressure;BME280_temperature;BME280_humidity;BME280_pressure;Samples;Min_cycle;Max_cycle;Signal;HPM_P1;HPM_P2
2022/04/26 03:36:15;;;;;;;5.82;4.85;;;11.50;99.90;;;;;;5054203;28;20546;-94
2022/04/26 03:38:47;;;;;;;4.38;3.92;;;11.50;99.90;;;;;;5036080;28;20021;-94
2022/04/26 03:41:13;;;;;;;5.03;4.53;;;11.50;99.90;;;;;;5036059;28;20079;-93
2022/04/26 03:43:39;;;;;;;6.22;4.38;;;11.50;99.90;;;;;;5036209;28;20465;-93
2022/04/26 03:46:04;;;;;;;4.68;4.18;;;11.50;99.90;;;;;;5038829;28;20028;-93
2022/04/26 03:48:30;;;;;;;5.15;4.50;;;11.50;99.90;;;;;;5039879;28;20389;-94
2022/04/26 03:50:56;;;;;;;5.25;3.85;;;11.50;99.90;;;;;;5039640;28;20087;-93
2022/04/26 03:53:21;;;;;;;4.85;4.13;;;11.50;99.90;;;;;;5057761;28;20476;-94
2022/04/26 03:55:47;;;;;;;4.80;4.28;;;11.40;99.90;;;;;;5039522;28;20052;-93
2022/04/26 03:58:13;;;;;;;4.95;4.45;;;11.50;99.90;;;;;;5039549;28;20464;-93
2022/04/26 04:00:38;;;;;;;4.53;4.13;;;11.50;99.90;;;;;;5039627;28;20033;-93
2022/04/26 04:03:04;;;;;;;4.85;4.32;;;11.40;99.90;;;;;;5039618;28;20095;-92
2022/04/26 04:05:30;;;;;;;4.10;3.70;;;11.40;99.90;;;;;;5039501;28;20369;-93
2022/04/26 04:07:56;;;;;;;4.80;4.20;;;11.40;99.90;;;;;;5040056;28;20424;-93
2022/04/26 04:10:21;;;;;;;4.93;4.00;;;11.40;99.90;;;;;;5039359;28;20032;-93
2022/04/26 04:12:47;;;;;;;4.47;3.85;;;11.40;99.90;;;;;;5056829;28;20032;-93
2022/04/26 04:15:13;;;;;;;5.25;4.18;;;11.40;99.90;;;;;;5038985;28;20032;-92
2022/04/26 04:17:38;;;;;;;4.10;3.70;;;11.40;99.90;;;;;;5039300;28;20027;-93
2022/04/26 04:20:05;;;;;;;4.78;4.10;;;11.40;99.90;;;;;;5039010;28;20131;-93
2022/04/26 04:22:30;;;;;;;4.75;4.07;;;11.40;99.90;;;;;;5039137;28;20018;-93
2022/04/26 04:24:56;;;;;;;5.45;4.25;;;11.40;99.90;;;;;;5038799;28;20040;-92
2022/04/26 04:27:21;;;;;;;4.10;3.70;;;11.40;99.90;;;;;;5038976;28;20128;-93
2022/04/26 04:29:47;;;;;;;6.07;3.92;;;11.40;99.90;;;;;;5038950;28;20025;-93
2022/04/26 04:32:13;;;;;;;4.43;3.80;;;11.40;99.90;;;;;;5056577;28;20096;-93
2022/04/26 04:34:39;;;;;;;4.10;3.70;;;11.40;99.90;;;;;;5056721;28;20036;-92
2022/04/26 04:37:05;;;;;;;4.43;3.85;;;11.40;99.90;;;;;;5038801;28;20435;-93
2022/04/26 04:39:31;;;;;;;5.53;4.10;;;11.40;99.90;;;;;;5039012;28;20078;-93
2022/04/26 04:41:57;;;;;;;3.92;3.45;;;11.40;99.90;;;;;;5038896;28;20075;-93
2022/04/26 04:44:23;;;;;;;4.15;3.63;;;11.40;99.90;;;;;;5038994;28;20108;-92
2022/04/26 04:46:49;;;;;;;4.20;3.53;;;11.40;99.90;;;;;;5039017;28;20052;-92
2022/04/26 04:49:15;;;;;;;5.55;4.35;;;11.40;99.90;;;;;;5038787;28;20025;-93
2022/04/26 04:51:40;;;;;;;5.07;4.13;;;11.40;99.90;;;;;;5038700;28;20025;-93
2022/04/26 04:54:06;;;;;;;7.05;3.42;;;11.40;99.90;;;;;;5038790;28;20120;-93
2022/04/26 04:56:32;;;;;;;5.00;3.50;;;11.40;99.90;;;;;;5038552;28;20032;-94
2022/04/26 04:58:58;;;;;;;3.90;3.50;;;11.40;99.90;;;;;;5039064;28;20465;-93
2022/04/26 05:01:23;;;;;;;3.72;3.42;;;11.40;99.90;;;;;;5038625;28;20017;-91
2022/04/26 05:03:50;;;;;;;4.78;3.67;;;11.30;99.90;;;;;;5056230;28;20021;-92
2022/04/26 05:06:17;;;;;;;8.00;3.85;;;11.40;99.90;;;;;;5038421;28;20028;-93
2022/04/26 05:08:45;;;;;;;4.60;3.55;;;11.40;99.90;;;;;;5038355;28;20028;-94
2022/04/26 05:11:11;;;;;;;4.00;3.60;;;11.30;99.90;;;;;;5038613;28;20377;-93
2022/04/26 05:13:37;;;;;;;4.35;3.95;;;11.40;99.90;;;;;;5038421;28;20033;-93
2022/04/26 05:16:03;;;;;;;6.00;3.67;;;11.40;99.90;;;;;;5038106;28;20029;-93
2022/04/26 05:18:29;;;;;;;4.63;4.22;;;11.40;99.90;;;;;;5038486;28;20028;-93
2022/04/26 05:20:55;;;;;;;3.78;3.25;;;11.40;99.90;;;;;;5038267;28;20025;-92
2022/04/26 05:26:05;;;;;;;3.83;3.42;;;11.30;99.90;;;;;;5056377;28;20089;-93
2022/04/26 05:28:31;;;;;;;3.88;3.33;;;11.40;99.90;;;;;;5037969;28;20128;-94
2022/04/26 05:30:57;;;;;;;6.47;3.63;;;11.40;99.90;;;;;;5037876;28;20029;-92
2022/04/26 05:33:26;;;;;;;4.65;4.07;;;11.40;99.90;;;;;;5037963;28;20025;-92
2022/04/26 05:35:51;;;;;;;4.38;3.90;;;11.40;99.90;;;;;;5055464;28;20021;-93
2022/04/26 05:38:17;;;;;;;4.20;3.58;;;11.40;99.90;;;;;;5037699;28;20025;-92
2022/04/26 05:40:44;;;;;;;4.28;3.88;;;11.40;99.90;;;;;;5037607;28;20056;-91
2022/04/26 05:43:10;;;;;;;5.13;3.70;;;11.40;99.90;;;;;;5037543;28;20043;-92
2022/04/26 05:45:36;;;;;;;3.92;3.40;;;11.40;99.90;;;;;;5037444;28;20039;-92
2022/04/26 05:48:03;;;;;;;4.20;3.80;;;11.40;99.90;;;;;;5037448;28;20021;-91
2022/04/26 05:50:29;;;;;;;5.00;3.75;;;11.40;99.90;;;;;;5055059;28;20043;-92
2022/04/26 05:52:54;;;;;;;4.13;3.33;;;11.40;99.90;;;;;;5037465;28;20107;-93
2022/04/26 05:55:20;;;;;;;4.60;3.58;;;11.40;99.90;;;;;;5037281;28;20025;-92
2022/04/26 05:57:46;;;;;;;3.92;3.50;;;11.40;99.90;;;;;;5037723;28;20036;-92
2022/04/26 06:00:13;;;;;;;4.28;3.55;;;11.40;99.90;;;;;;5037315;28;20031;-92
2022/04/26 06:02:40;;;;;;;3.80;3.50;;;11.40;99.90;;;;;;5037416;28;20544;-92
2022/04/26 06:05:06;;;;;;;4.78;3.45;;;11.40;99.90;;;;;;5055069;28;20017;-93
2022/04/26 06:07:31;;;;;;;3.50;3.20;;;11.40;99.90;;;;;;5036967;28;20100;-92
2022/04/26 06:09:57;;;;;;;4.53;3.65;;;11.40;99.90;;;;;;5037000;28;20021;-92
2022/04/26 06:12:26;;;;;;;4.65;3.65;;;11.40;99.90;;;;;;5037788;28;20017;-91
2022/04/26 06:14:55;;;;;;;3.67;3.25;;;11.40;99.90;;;;;;5036821;28;20017;-91
2022/04/26 06:17:21;;;;;;;3.92;3.42;;;11.40;99.90;;;;;;5036903;28;20027;-91
2022/04/26 06:19:48;;;;;;;4.75;3.40;;;11.40;99.90;;;;;;5036708;28;20020;-91
2022/04/26 06:22:13;;;;;;;3.55;3.15;;;11.40;99.90;;;;;;5036829;28;20031;-92
2022/04/26 06:24:39;;;;;;;5.00;3.20;;;11.40;99.90;;;;;;5054403;28;20400;-91
2022/04/26 06:27:04;;;;;;;4.55;3.83;;;11.40;99.90;;;;;;5036714;28;20404;-92
2022/04/26 06:29:30;;;;;;;3.72;3.33;;;11.40;99.90;;;;;;5036701;28;20025;-92
2022/04/26 06:31:56;;;;;;;5.15;3.47;;;11.40;99.90;;;;;;5037215;28;20490;-91
2022/04/26 06:34:22;;;;;;;4.28;3.70;;;11.40;99.90;;;;;;5036504;28;20483;-91
2022/04/26 06:36:47;;;;;;;5.50;3.75;;;11.40;99.90;;;;;;5036382;28;20025;-91
2022/04/26 06:39:13;;;;;;;8.00;3.92;;;11.40;99.90;;;;;;5036494;28;20115;-91
2022/04/26 06:41:39;;;;;;;4.68;3.90;;;11.40;99.90;;;;;;5036430;28;20052;-92
2022/04/26 06:44:04;;;;;;;3.90;3.50;;;11.50;99.90;;;;;;5054261;28;20021;-91
2022/04/26 06:46:30;;;;;;;5.80;3.85;;;11.40;99.90;;;;;;5036576;28;20033;-91
2022/04/26 06:48:58;;;;;;;6.70;3.78;;;11.50;99.90;;;;;;5036461;28;20037;-92
2022/04/26 06:51:30;;;;;;;4.05;3.53;;;11.50;99.90;;;;;;5036271;28;20035;-92
2022/04/26 06:53:56;;;;;;;4.50;4.07;;;11.50;99.90;;;;;;5054129;28;20075;-90
2022/04/26 06:56:22;;;;;;;4.03;3.50;;;11.50;99.90;;;;;;5035940;28;20415;-91
2022/04/26 06:58:47;;;;;;;5.15;3.53;;;11.50;99.90;;;;;;5054156;28;20021;-91
2022/04/26 07:01:13;;;;;;;3.85;3.42;;;11.50;99.90;;;;;;5053768;28;20021;-90
2022/04/26 07:03:39;;;;;;;4.40;3.78;;;11.60;99.90;;;;;;5053622;28;20017;-91
2022/04/26 07:06:05;;;;;;;6.22;3.80;;;11.60;99.90;;;;;;5035688;28;20021;-90
2022/04/26 07:08:30;;;;;;;5.65;3.65;;;11.60;99.90;;;;;;5035631;28;20028;-89
2022/04/26 07:10:56;;;;;;;4.88;3.70;;;11.60;99.90;;;;;;5035535;28;20186;-89
2022/04/26 07:13:22;;;;;;;3.95;3.30;;;11.70;99.90;;;;;;5035736;28;20119;-90
2022/04/26 07:15:48;;;;;;;6.00;3.67;;;11.70;99.90;;;;;;5035317;28;20025;-90
2022/04/26 07:18:13;;;;;;;5.68;3.75;;;11.70;99.90;;;;;;5035666;28;20032;-90
2022/04/26 07:20:41;;;;;;;4.45;3.58;;;11.70;99.90;;;;;;5038078;28;20021;-89
2022/04/26 07:23:07;;;;;;;4.85;3.58;;;11.70;99.90;;;;;;5057271;28;20116;-90
2022/04/26 07:25:33;;;;;;;4.03;3.63;;;11.70;99.90;;;;;;5039534;28;20024;-89
2022/04/26 07:27:59;;;;;;;4.13;3.50;;;11.70;99.90;;;;;;5039504;28;20384;-89
2022/04/26 07:30:34;;;;;;;3.72;3.42;;;11.70;99.90;;;;;;5039450;28;20095;-90
2022/04/26 07:35:52;;;;;;;4.13;3.65;;;11.70;99.90;;;;;;5057688;28;20028;-90
2022/04/26 07:38:17;;;;;;;4.07;3.40;;;11.80;99.90;;;;;;5039317;28;20396;-90
2022/04/26 07:40:43;;;;;;;3.63;3.33;;;11.80;99.90;;;;;;5039556;28;20032;-90
2022/04/26 07:43:09;;;;;;;5.53;3.70;;;11.80;99.90;;;;;;5039277;28;20028;-90
2022/04/26 07:45:39;;;;;;;3.80;3.20;;;11.80;99.90;;;;;;5039385;28;20021;-90
2022/04/26 07:48:06;;;;;;;4.10;3.47;;;11.70;99.90;;;;;;5057093;28;20507;-90
2022/04/26 07:50:33;;;;;;;4.35;3.70;;;11.80;99.90;;;;;;5022702;28;20124;-89
2022/04/26 07:53:00;;;;;;;4.15;3.13;;;11.80;99.90;;;;;;5056818;28;20025;-90
2022/04/26 07:55:27;;;;;;;4.35;3.53;;;11.70;99.90;;;;;;5039007;28;20435;-90
2022/04/26 07:57:53;;;;;;;4.22;3.40;;;11.70;99.90;;;;;;5038950;28;20388;-90
2022/04/26 08:00:19;;;;;;;4.72;3.72;;;11.70;99.90;;;;;;5039146;28;20018;-89
2022/04/26 08:02:45;;;;;;;3.88;3.33;;;11.80;99.90;;;;;;5022565;28;20036;-89
2022/04/26 08:05:11;;;;;;;5.05;3.40;;;11.70;99.90;;;;;;5039030;28;20412;-89
2022/04/26 08:07:41;;;;;;;4.70;3.53;;;11.80;99.90;;;;;;5039226;28;20049;-89
2022/04/26 08:10:12;;;;;;;4.60;3.67;;;11.80;99.90;;;;;;5039310;28;20021;-89
2022/04/26 08:12:39;;;;;;;5.05;3.50;;;11.80;99.90;;;;;;5057076;28;20100;-89
2022/04/26 08:15:05;;;;;;;5.18;3.90;;;11.80;99.90;;;;;;5038657;28;20195;-89
2022/04/26 08:17:31;;;;;;;4.07;3.65;;;11.80;99.90;;;;;;5038381;28;20032;-89
2022/04/26 08:19:57;;;;;;;4.30;3.33;;;11.90;99.90;;;;;;5038435;28;20033;-90
2022/04/26 08:22:23;;;;;;;4.20;2.92;;;11.90;99.90;;;;;;5038585;28;20025;-88
2022/04/26 08:27:33;;;;;;;5.60;3.55;;;11.90;99.90;;;;;;5036835;28;20060;-89
2022/04/26 08:30:03;;;;;;;4.70;3.60;;;11.90;99.90;;;;;;5018407;28;20042;-89
2022/04/26 08:32:43;;;;;;;6.28;3.42;;;12.00;99.90;;;;;;5018541;28;20025;-89
2022/04/26 08:35:11;;;;;;;4.28;3.45;;;12.00;99.90;;;;;;5018478;28;20112;-90
2022/04/26 08:37:37;;;;;;;5.43;3.88;;;12.00;99.90;;;;;;5018787;28;20032;-88
2022/04/26 08:40:07;;;;;;;5.18;3.70;;;12.00;99.90;;;;;;5018441;28;20030;-89
2022/04/26 08:42:44;;;;;;;5.28;3.63;;;12.00;99.90;;;;;;5019125;28;20484;-89
2022/04/26 08:45:12;;;;;;;4.32;3.83;;;12.00;99.90;;;;;;5018523;28;20022;-91
2022/04/26 08:53:09;;;;;;;5.13;3.67;;;11.90;99.90;;;;;;5036674;28;20037;-90
2022/04/26 08:55:42;;;;;;;7.22;3.80;;;12.00;99.90;;;;;;5018065;28;20075;-90
2022/04/26 08:58:11;;;;;;;5.20;4.27;;;11.90;99.90;;;;;;5036038;28;20422;-85
2022/04/26 09:00:39;;;;;;;5.80;4.10;;;12.00;99.90;;;;;;5017865;28;20264;-90
2022/04/26 09:03:07;;;;;;;4.95;3.50;;;12.00;99.90;;;;;;5018858;28;20044;-88
2022/04/26 09:05:33;;;;;;;5.13;4.40;;;12.00;99.90;;;;;;5017727;28;20022;-88
2022/04/26 09:08:00;;;;;;;6.07;4.38;;;12.00;99.90;;;;;;5017906;28;20083;-88
2022/04/26 09:10:29;;;;;;;5.65;4.60;;;12.10;99.90;;;;;;5017542;28;20025;-88
2022/04/26 09:13:08;;;;;;;5.43;4.03;;;12.10;99.90;;;;;;5017749;28;20060;-89
2022/04/26 09:15:47;;;;;;;6.25;4.22;;;12.20;99.90;;;;;;5017579;28;20032;-89
2022/04/26 09:18:20;;;;;;;6.22;4.65;;;12.20;99.90;;;;;;5017694;28;20025;-89
2022/04/26 09:20:48;;;;;;;7.18;4.50;;;12.30;99.90;;;;;;5035371;28;20075;-88
2022/04/26 09:23:18;;;;;;;5.70;4.28;;;12.30;99.90;;;;;;5042369;28;20044;-89
2022/04/26 09:25:45;;;;;;;7.75;4.18;;;12.30;99.90;;;;;;5034667;28;20029;-88
2022/04/26 09:28:23;;;;;;;5.10;4.13;;;12.40;99.90;;;;;;5021167;28;20059;-88
2022/04/26 09:30:49;;;;;;;6.07;4.88;;;12.40;99.90;;;;;;5037512;28;20025;-90
2022/04/26 09:33:52;;;;;;;4.75;3.72;;;12.50;99.90;;;;;;5055266;28;20028;-90
2022/04/26 09:36:20;;;;;;;5.30;4.28;;;12.50;99.90;;;;;;5037584;28;20029;-91
2022/04/26 09:38:58;;;;;;;7.50;4.78;;;12.60;99.90;;;;;;5038296;28;20100;-93
2022/04/26 09:41:25;;;;;;;8.02;4.05;;;12.70;99.90;;;;;;5035602;28;20033;-89
2022/04/26 09:44:10;;;;;;;5.60;4.13;;;12.70;99.90;;;;;;5054734;28;20021;-90
2022/04/26 09:46:53;;;;;;;6.18;4.20;;;12.80;99.90;;;;;;5038345;28;20082;-87
2022/04/26 09:49:24;;;;;;;5.05;4.55;;;12.80;99.90;;;;;;5038691;28;20029;-92
2022/04/26 09:51:58;;;;;;;6.18;4.30;;;12.80;99.90;;;;;;5038905;28;20515;-92
2022/04/26 09:54:23;;;;;;;5.23;4.23;;;12.90;99.90;;;;;;5039931;28;20460;-90
2022/04/26 09:56:50;;;;;;;6.35;4.20;;;12.90;99.90;;;;;;5039842;28;20111;-93
2022/04/26 09:59:28;;;;;;;6.97;4.50;;;12.90;99.90;;;;;;5039567;28;20021;-94
2022/04/26 10:01:56;;;;;;;6.22;4.18;;;13.00;99.90;;;;;;5040784;28;20017;-91
2022/04/26 10:04:25;;;;;;;6.57;5.00;;;13.00;99.90;;;;;;5040191;28;20389;-93
2022/04/26 10:06:53;;;;;;;6.35;4.53;;;13.00;99.90;;;;;;5040439;28;20388;-92
2022/04/26 10:09:19;;;;;;;6.72;3.88;;;12.90;99.90;;;;;;5039596;28;20027;-95
2022/04/26 10:11:48;;;;;;;5.03;4.05;;;13.10;99.90;;;;;;5043927;28;20370;-94
2022/04/26 10:14:51;;;;;;;6.00;3.70;;;13.10;99.90;;;;;;5052123;28;20025;-96
2022/04/26 10:17:35;;;;;;;5.72;3.72;;;13.10;99.90;;;;;;5045567;28;20058;-95
2022/04/26 10:20:01;;;;;;;6.43;4.07;;;13.20;99.90;;;;;;5047691;28;20025;-93
2022/04/26 11:30:30;;;;;;;3.78;2.85;;;13.10;99.90;;;;;;4964442;28;20059;-96
2022/04/26 11:32:58;;;;;;;4.28;3.03;;;13.10;99.90;;;;;;4943732;29;20487;-95
2022/04/26 11:35:25;;;;;;;4.07;2.78;;;13.10;99.90;;;;;;4942176;29;20494;-96
2022/04/26 11:37:53;;;;;;;3.95;2.85;;;13.10;99.90;;;;;;4944026;29;20386;-91
2022/04/26 11:40:31;;;;;;;3.92;3.00;;;13.10;99.90;;;;;;4945115;29;20055;-96
2022/04/26 11:43:15;;;;;;;6.78;2.97;;;13.00;99.90;;;;;;4947635;29;20062;-96
2022/04/26 13:14:35;;;;;;;6.07;3.60;;;12.80;99.90;;;;;;4960569;29;20073;-96
2022/04/26 13:17:01;;;;;;;3.80;3.00;;;12.90;99.90;;;;;;4945225;29;20058;-95
2022/04/26 13:19:33;;;;;;;3.70;3.10;;;13.00;99.90;;;;;;4945132;29;20026;-96
2022/04/26 13:31:21;;;;;;;3.42;2.65;;;13.20;99.90;;;;;;5548549;23;20255;-94
2022/04/26 13:33:47;;;;;;;3.03;2.63;;;13.30;99.90;;;;;;4985348;28;20027;-91
2022/04/26 13:36:22;;;;;;;3.65;2.60;;;13.50;99.90;;;;;;4982414;28;20375;-95
2022/04/26 13:38:59;;;;;;;3.47;2.35;;;13.70;99.90;;;;;;4984125;28;20018;-95
2022/04/26 13:41:27;;;;;;;2.92;2.38;;;13.80;99.90;;;;;;4989000;28;20061;-96
